Aeroporto :
LOGIN :

Iscrizione | Disclaimer

   EN    FR    IT 

 










Sommario :    VFR   VFR Marginale   IFR   IFR Intensivo   IFR Molto Intensivo
Visibilità : 
Base nubi : 
>= 8 km
>= 3000ft
5 / 8 km
1000 / 3000 ft
1500m / 5 km
500 / 1000 ft
800 / 1500m
200 / 500 ft
< 800m
< 200 ft
Simboli :   Temporali  Nebbia  Neve Forte  Precipitazioni Forti  Vento > 20 kt
SIGMETs :   Varie  Temporali  Ghiacco  Turbolenza  Onda orograficha  Ceneri Vulcaniche






- Altitudine del aeroporto : 1079 ft


ETIK - Illesheim Air Base

ULTIMO METAR :
  • 051256Z AUTO 09007KT 9999 BKN065 25/09 A3011 RMK AO2 SLP191 T02480087 $

METARs OBSOLETI :
  • 051156Z AUTO 00000KT 9999 SCT065 23/09 A3012 RMK AO2 SLP195 T02330086 10239 20129 57006 $
  • 051056Z AUTO 10006KT 9999 CLR 23/08 A3013 RMK AO2 SLP197 T02300079

TAF TAF ETIK
Valido dal 05 a 06 ore il 06 a 12 ore UTC


050609Z 0506/0612 VRB06KT 9999 FEW050 QNH3009INS
BECMG 0510/0511 09009KT 9999 SCT050 QNH3006INS
BECMG 0515/0516 VRB06KT 9999 SKC QNH3010INS TX23/0514Z TN10/0604Z



MetMap, La meteo Aeronautica in un colpo d'occhio ! - Copyright ORBIFLY Dicembre 2007 - Disclaimer

ORBIFLY MET'MAP TEAM :

Programmazione e sviluppo : Alexandra Zaïnal
Concezione : Baudouin d'Aumeries
Aiuto per la programmazione : Marc-Olivier Méhu
Supporto tecnico e logistico : Manuel Goepfert
Aiuto per la traduzione : Arnaldo La Scala

Contatto : metmap@orbifly.com




FONTI E CREDITI :

   NOAA